sensor_id;sensor_type;location;lat;lon;timestamp;P1;durP1;ratioP1;P2;durP2;ratioP2
56005;SDS011;41888;44.696;10.522;2023-03-31T00:02:02;7.97;;;2.08;;
56005;SDS011;41888;44.696;10.522;2023-03-31T00:04:38;4.75;;;1.33;;
56005;SDS011;41888;44.696;10.522;2023-03-31T00:07:10;4.38;;;1.80;;
56005;SDS011;41888;44.696;10.522;2023-03-31T00:09:37;2.88;;;1.33;;
56005;SDS011;41888;44.696;10.522;2023-03-31T00:12:06;2.40;;;1.50;;
56005;SDS011;41888;44.696;10.522;2023-03-31T00:14:32;4.90;;;1.35;;
56005;SDS011;41888;44.696;10.522;2023-03-31T00:16:58;4.13;;;1.17;;
56005;SDS011;41888;44.696;10.522;2023-03-31T00:19:26;4.18;;;1.33;;
56005;SDS011;41888;44.696;10.522;2023-03-31T00:21:53;2.60;;;1.48;;
56005;SDS011;41888;44.696;10.522;2023-03-31T00:24:19;3.65;;;1.75;;
56005;SDS011;41888;44.696;10.522;2023-03-31T00:26:45;5.65;;;1.40;;
56005;SDS011;41888;44.696;10.522;2023-03-31T00:29:12;4.60;;;1.75;;
56005;SDS011;41888;44.696;10.522;2023-03-31T00:31:38;5.60;;;1.75;;
56005;SDS011;41888;44.696;10.522;2023-03-31T00:34:04;6.18;;;1.50;;
56005;SDS011;41888;44.696;10.522;2023-03-31T00:36:31;5.88;;;2.17;;
56005;SDS011;41888;44.696;10.522;2023-03-31T00:39:00;5.05;;;1.70;;
56005;SDS011;41888;44.696;10.522;2023-03-31T00:41:33;5.90;;;2.03;;
56005;SDS011;41888;44.696;10.522;2023-03-31T00:49:24;4.97;;;2.10;;
56005;SDS011;41888;44.696;10.522;2023-03-31T00:52:03;8.50;;;1.95;;
56005;SDS011;41888;44.696;10.522;2023-03-31T00:54:30;5.80;;;2.22;;
56005;SDS011;41888;44.696;10.522;2023-03-31T00:57:00;5.40;;;1.92;;
56005;SDS011;41888;44.696;10.522;2023-03-31T00:59:30;5.82;;;2.20;;
56005;SDS011;41888;44.696;10.522;2023-03-31T01:02:02;7.75;;;2.28;;
56005;SDS011;41888;44.696;10.522;2023-03-31T01:04:31;9.77;;;3.47;;
56005;SDS011;41888;44.696;10.522;2023-03-31T01:07:19;5.13;;;1.77;;
56005;SDS011;41888;44.696;10.522;2023-03-31T01:10:00;5.45;;;2.10;;
56005;SDS011;41888;44.696;10.522;2023-03-31T01:12:29;4.68;;;1.85;;
56005;SDS011;41888;44.696;10.522;2023-03-31T01:14:58;3.78;;;1.63;;
56005;SDS011;41888;44.696;10.522;2023-03-31T01:17:25;6.88;;;2.13;;
56005;SDS011;41888;44.696;10.522;2023-03-31T01:20:05;4.90;;;2.20;;
56005;SDS011;41888;44.696;10.522;2023-03-31T01:23:01;4.07;;;1.83;;
56005;SDS011;41888;44.696;10.522;2023-03-31T01:43:29;5.13;;;1.88;;
56005;SDS011;41888;44.696;10.522;2023-03-31T01:46:17;5.95;;;2.30;;
56005;SDS011;41888;44.696;10.522;2023-03-31T01:49:06;5.55;;;2.00;;
56005;SDS011;41888;44.696;10.522;2023-03-31T01:51:48;4.43;;;2.38;;
56005;SDS011;41888;44.696;10.522;2023-03-31T01:54:38;10.93;;;2.15;;
56005;SDS011;41888;44.696;10.522;2023-03-31T02:05:26;5.95;;;2.30;;
56005;SDS011;41888;44.696;10.522;2023-03-31T02:08:01;7.63;;;2.60;;
56005;SDS011;41888;44.696;10.522;2023-03-31T02:10:34;3.88;;;1.88;;
56005;SDS011;41888;44.696;10.522;2023-03-31T02:13:03;3.38;;;1.77;;
56005;SDS011;41888;44.696;10.522;2023-03-31T02:15:34;4.40;;;1.85;;
56005;SDS011;41888;44.696;10.522;2023-03-31T02:18:04;4.47;;;1.50;;
56005;SDS011;41888;44.696;10.522;2023-03-31T02:20:36;3.88;;;1.73;;
56005;SDS011;41888;44.696;10.522;2023-03-31T02:23:07;5.22;;;2.13;;
56005;SDS011;41888;44.696;10.522;2023-03-31T02:25:41;3.38;;;1.95;;
56005;SDS011;41888;44.696;10.522;2023-03-31T02:28:17;3.70;;;1.70;;
56005;SDS011;41888;44.696;10.522;2023-03-31T02:33:34;6.10;;;1.80;;
56005;SDS011;41888;44.696;10.522;2023-03-31T02:36:00;4.07;;;2.00;;
56005;SDS011;41888;44.696;10.522;2023-03-31T02:38:27;4.93;;;2.15;;
56005;SDS011;41888;44.696;10.522;2023-03-31T02:40:59;10.60;;;2.63;;
56005;SDS011;41888;44.696;10.522;2023-03-31T02:43:26;8.05;;;1.70;;
56005;SDS011;41888;44.696;10.522;2023-03-31T02:45:52;5.85;;;2.25;;
56005;SDS011;41888;44.696;10.522;2023-03-31T02:48:20;10.52;;;2.20;;
56005;SDS011;41888;44.696;10.522;2023-03-31T02:53:37;5.30;;;2.00;;
56005;SDS011;41888;44.696;10.522;2023-03-31T03:05:26;11.57;;;2.05;;
56005;SDS011;41888;44.696;10.522;2023-03-31T03:08:18;4.30;;;1.88;;
56005;SDS011;41888;44.696;10.522;2023-03-31T03:13:45;6.53;;;2.25;;
56005;SDS011;41888;44.696;10.522;2023-03-31T03:16:36;5.63;;;1.80;;
56005;SDS011;41888;44.696;10.522;2023-03-31T03:19:07;4.53;;;1.90;;
56005;SDS011;41888;44.696;10.522;2023-03-31T03:21:34;4.75;;;1.70;;
56005;SDS011;41888;44.696;10.522;2023-03-31T03:24:00;6.78;;;1.90;;
56005;SDS011;41888;44.696;10.522;2023-03-31T03:26:27;6.07;;;2.05;;
56005;SDS011;41888;44.696;10.522;2023-03-31T03:28:56;4.30;;;1.75;;
56005;SDS011;41888;44.696;10.522;2023-03-31T03:31:22;5.10;;;1.92;;
56005;SDS011;41888;44.696;10.522;2023-03-31T03:33:49;6.15;;;1.90;;
56005;SDS011;41888;44.696;10.522;2023-03-31T03:36:16;7.85;;;2.13;;
56005;SDS011;41888;44.696;10.522;2023-03-31T03:38:43;4.97;;;1.83;;
56005;SDS011;41888;44.696;10.522;2023-03-31T03:41:09;6.32;;;2.25;;
56005;SDS011;41888;44.696;10.522;2023-03-31T03:43:35;3.30;;;1.98;;
56005;SDS011;41888;44.696;10.522;2023-03-31T03:46:02;8.27;;;2.28;;
56005;SDS011;41888;44.696;10.522;2023-03-31T03:48:29;6.82;;;2.38;;
56005;SDS011;41888;44.696;10.522;2023-03-31T03:50:55;5.18;;;2.42;;
56005;SDS011;41888;44.696;10.522;2023-03-31T03:53:24;5.07;;;2.47;;
56005;SDS011;41888;44.696;10.522;2023-03-31T03:55:51;8.70;;;2.92;;
56005;SDS011;41888;44.696;10.522;2023-03-31T03:58:17;5.80;;;2.53;;
56005;SDS011;41888;44.696;10.522;2023-03-31T04:00:44;8.75;;;2.45;;
56005;SDS011;41888;44.696;10.522;2023-03-31T04:03:11;7.80;;;3.53;;
56005;SDS011;41888;44.696;10.522;2023-03-31T04:05:37;4.35;;;2.22;;
56005;SDS011;41888;44.696;10.522;2023-03-31T04:08:03;4.32;;;2.40;;
56005;SDS011;41888;44.696;10.522;2023-03-31T04:10:32;5.85;;;3.25;;
56005;SDS011;41888;44.696;10.522;2023-03-31T04:12:59;5.15;;;2.67;;
56005;SDS011;41888;44.696;10.522;2023-03-31T04:15:25;6.15;;;2.92;;
56005;SDS011;41888;44.696;10.522;2023-03-31T04:17:51;15.55;;;3.80;;
56005;SDS011;41888;44.696;10.522;2023-03-31T04:20:19;5.95;;;3.30;;
56005;SDS011;41888;44.696;10.522;2023-03-31T04:22:45;4.05;;;2.60;;
56005;SDS011;41888;44.696;10.522;2023-03-31T04:25:14;3.35;;;2.30;;
56005;SDS011;41888;44.696;10.522;2023-03-31T04:27:42;4.75;;;2.58;;
56005;SDS011;41888;44.696;10.522;2023-03-31T04:30:19;7.75;;;3.22;;
56005;SDS011;41888;44.696;10.522;2023-03-31T04:32:48;5.90;;;2.92;;
56005;SDS011;41888;44.696;10.522;2023-03-31T04:35:19;7.45;;;3.08;;
56005;SDS011;41888;44.696;10.522;2023-03-31T04:37:47;10.90;;;3.50;;
56005;SDS011;41888;44.696;10.522;2023-03-31T04:40:15;6.43;;;2.83;;
56005;SDS011;41888;44.696;10.522;2023-03-31T04:42:42;7.40;;;2.95;;
56005;SDS011;41888;44.696;10.522;2023-03-31T04:45:09;4.85;;;3.08;;
56005;SDS011;41888;44.696;10.522;2023-03-31T04:47:36;12.18;;;3.40;;
56005;SDS011;41888;44.696;10.522;2023-03-31T04:50:02;6.25;;;3.10;;
56005;SDS011;41888;44.696;10.522;2023-03-31T04:52:29;6.68;;;3.17;;
56005;SDS011;41888;44.696;10.522;2023-03-31T04:54:55;7.15;;;3.00;;
56005;SDS011;41888;44.696;10.522;2023-03-31T04:57:22;4.82;;;3.00;;
56005;SDS011;41888;44.696;10.522;2023-03-31T04:59:48;5.40;;;2.97;;
56005;SDS011;41888;44.696;10.522;2023-03-31T05:02:14;6.45;;;2.72;;
56005;SDS011;41888;44.696;10.522;2023-03-31T05:04:47;5.20;;;3.10;;
56005;SDS011;41888;44.696;10.522;2023-03-31T05:07:14;7.25;;;3.03;;
56005;SDS011;41888;44.696;10.522;2023-03-31T05:09:42;5.15;;;3.20;;
56005;SDS011;41888;44.696;10.522;2023-03-31T05:12:08;8.98;;;4.63;;
56005;SDS011;41888;44.696;10.522;2023-03-31T05:14:35;8.02;;;4.30;;
56005;SDS011;41888;44.696;10.522;2023-03-31T05:17:01;10.73;;;3.60;;
56005;SDS011;41888;44.696;10.522;2023-03-31T05:19:27;6.35;;;3.55;;
56005;SDS011;41888;44.696;10.522;2023-03-31T05:21:53;13.00;;;4.45;;
56005;SDS011;41888;44.696;10.522;2023-03-31T05:24:19;14.02;;;3.85;;
56005;SDS011;41888;44.696;10.522;2023-03-31T05:26:46;8.32;;;3.58;;
56005;SDS011;41888;44.696;10.522;2023-03-31T05:29:17;7.43;;;3.03;;
56005;SDS011;41888;44.696;10.522;2023-03-31T05:31:43;9.20;;;3.95;;
56005;SDS011;41888;44.696;10.522;2023-03-31T05:34:09;9.90;;;4.35;;
56005;SDS011;41888;44.696;10.522;2023-03-31T05:36:36;7.30;;;3.20;;
56005;SDS011;41888;44.696;10.522;2023-03-31T05:39:05;10.63;;;3.80;;
56005;SDS011;41888;44.696;10.522;2023-03-31T05:41:32;7.75;;;3.10;;
56005;SDS011;41888;44.696;10.522;2023-03-31T05:43:59;8.15;;;3.53;;
56005;SDS011;41888;44.696;10.522;2023-03-31T05:46:26;9.52;;;3.75;;
56005;SDS011;41888;44.696;10.522;2023-03-31T05:48:52;6.80;;;3.13;;
56005;SDS011;41888;44.696;10.522;2023-03-31T05:51:19;9.00;;;3.63;;
56005;SDS011;41888;44.696;10.522;2023-03-31T05:53:45;13.73;;;5.13;;
56005;SDS011;41888;44.696;10.522;2023-03-31T05:56:11;13.43;;;3.67;;
56005;SDS011;41888;44.696;10.522;2023-03-31T05:58:37;7.85;;;3.63;;
56005;SDS011;41888;44.696;10.522;2023-03-31T06:03:35;6.68;;;3.05;;
56005;SDS011;41888;44.696;10.522;2023-03-31T06:06:05;8.63;;;3.55;;
56005;SDS011;41888;44.696;10.522;2023-03-31T06:08:36;7.90;;;3.47;;
56005;SDS011;41888;44.696;10.522;2023-03-31T06:11:05;10.65;;;4.03;;
56005;SDS011;41888;44.696;10.522;2023-03-31T06:13:33;8.70;;;4.05;;
56005;SDS011;41888;44.696;10.522;2023-03-31T06:16:00;7.38;;;5.07;;
56005;SDS011;41888;44.696;10.522;2023-03-31T06:18:27;9.40;;;4.50;;
56005;SDS011;41888;44.696;10.522;2023-03-31T06:20:55;12.00;;;4.45;;
56005;SDS011;41888;44.696;10.522;2023-03-31T06:23:22;9.68;;;4.40;;
56005;SDS011;41888;44.696;10.522;2023-03-31T06:25:49;10.63;;;4.00;;
56005;SDS011;41888;44.696;10.522;2023-03-31T06:28:16;7.45;;;4.07;;
56005;SDS011;41888;44.696;10.522;2023-03-31T06:30:43;10.35;;;5.00;;
56005;SDS011;41888;44.696;10.522;2023-03-31T06:33:09;9.43;;;4.93;;
56005;SDS011;41888;44.696;10.522;2023-03-31T06:35:39;8.70;;;4.40;;
56005;SDS011;41888;44.696;10.522;2023-03-31T06:38:06;7.47;;;4.93;;
56005;SDS011;41888;44.696;10.522;2023-03-31T06:40:32;10.02;;;4.30;;
56005;SDS011;41888;44.696;10.522;2023-03-31T06:42:58;12.88;;;5.93;;
56005;SDS011;41888;44.696;10.522;2023-03-31T06:45:25;13.38;;;5.28;;
56005;SDS011;41888;44.696;10.522;2023-03-31T06:47:51;11.75;;;5.18;;
56005;SDS011;41888;44.696;10.522;2023-03-31T06:50:17;16.15;;;4.97;;
56005;SDS011;41888;44.696;10.522;2023-03-31T06:52:43;10.95;;;4.57;;
56005;SDS011;41888;44.696;10.522;2023-03-31T06:55:09;12.68;;;4.75;;
56005;SDS011;41888;44.696;10.522;2023-03-31T06:57:37;12.70;;;5.13;;
56005;SDS011;41888;44.696;10.522;2023-03-31T07:00:03;12.75;;;5.32;;
56005;SDS011;41888;44.696;10.522;2023-03-31T07:02:31;14.18;;;4.25;;
56005;SDS011;41888;44.696;10.522;2023-03-31T07:04:57;11.77;;;4.13;;
56005;SDS011;41888;44.696;10.522;2023-03-31T07:07:24;12.95;;;4.63;;
56005;SDS011;41888;44.696;10.522;2023-03-31T07:09:50;11.88;;;5.07;;
56005;SDS011;41888;44.696;10.522;2023-03-31T07:12:16;8.68;;;3.92;;
56005;SDS011;41888;44.696;10.522;2023-03-31T07:14:44;8.73;;;4.53;;
56005;SDS011;41888;44.696;10.522;2023-03-31T07:17:10;9.90;;;4.07;;
56005;SDS011;41888;44.696;10.522;2023-03-31T07:19:36;9.35;;;3.90;;
56005;SDS011;41888;44.696;10.522;2023-03-31T07:22:06;9.82;;;4.28;;
56005;SDS011;41888;44.696;10.522;2023-03-31T07:24:33;8.52;;;3.78;;
56005;SDS011;41888;44.696;10.522;2023-03-31T07:26:59;6.72;;;3.05;;
56005;SDS011;41888;44.696;10.522;2023-03-31T07:29:25;11.13;;;3.70;;
56005;SDS011;41888;44.696;10.522;2023-03-31T07:31:51;7.57;;;3.45;;
56005;SDS011;41888;44.696;10.522;2023-03-31T07:34:17;4.85;;;3.08;;
56005;SDS011;41888;44.696;10.522;2023-03-31T07:36:44;7.70;;;3.13;;
56005;SDS011;41888;44.696;10.522;2023-03-31T07:39:10;9.05;;;2.78;;
56005;SDS011;41888;44.696;10.522;2023-03-31T07:41:36;7.93;;;2.97;;
56005;SDS011;41888;44.696;10.522;2023-03-31T07:44:02;6.10;;;2.53;;
56005;SDS011;41888;44.696;10.522;2023-03-31T07:46:29;8.02;;;2.47;;
56005;SDS011;41888;44.696;10.522;2023-03-31T07:48:55;10.30;;;2.92;;
56005;SDS011;41888;44.696;10.522;2023-03-31T07:51:23;6.03;;;2.67;;
56005;SDS011;41888;44.696;10.522;2023-03-31T07:53:50;7.07;;;2.88;;
56005;SDS011;41888;44.696;10.522;2023-03-31T07:56:18;11.48;;;3.80;;
56005;SDS011;41888;44.696;10.522;2023-03-31T07:58:46;5.57;;;2.88;;
56005;SDS011;41888;44.696;10.522;2023-03-31T08:01:13;9.13;;;2.67;;
56005;SDS011;41888;44.696;10.522;2023-03-31T08:03:44;10.02;;;3.97;;
56005;SDS011;41888;44.696;10.522;2023-03-31T08:06:21;8.77;;;4.13;;
56005;SDS011;41888;44.696;10.522;2023-03-31T08:08:49;12.20;;;3.58;;
56005;SDS011;41888;44.696;10.522;2023-03-31T08:11:16;10.38;;;3.50;;
56005;SDS011;41888;44.696;10.522;2023-03-31T08:13:43;9.13;;;3.88;;
56005;SDS011;41888;44.696;10.522;2023-03-31T08:16:09;8.50;;;3.88;;
56005;SDS011;41888;44.696;10.522;2023-03-31T08:18:35;10.13;;;4.28;;
56005;SDS011;41888;44.696;10.522;2023-03-31T08:21:02;7.90;;;4.07;;
56005;SDS011;41888;44.696;10.522;2023-03-31T08:23:28;9.45;;;3.10;;
56005;SDS011;41888;44.696;10.522;2023-03-31T08:25:54;14.27;;;4.18;;
56005;SDS011;41888;44.696;10.522;2023-03-31T08:28:32;9.80;;;3.60;;
56005;SDS011;41888;44.696;10.522;2023-03-31T08:31:01;9.60;;;3.90;;
56005;SDS011;41888;44.696;10.522;2023-03-31T08:33:31;8.55;;;3.83;;
56005;SDS011;41888;44.696;10.522;2023-03-31T08:36:04;8.70;;;3.42;;
56005;SDS011;41888;44.696;10.522;2023-03-31T08:38:33;8.02;;;3.22;;
56005;SDS011;41888;44.696;10.522;2023-03-31T08:41:02;9.43;;;3.20;;
56005;SDS011;41888;44.696;10.522;2023-03-31T08:43:32;12.88;;;3.33;;
56005;SDS011;41888;44.696;10.522;2023-03-31T08:46:04;10.52;;;2.75;;
56005;SDS011;41888;44.696;10.522;2023-03-31T08:48:44;6.43;;;2.90;;
56005;SDS011;41888;44.696;10.522;2023-03-31T08:51:31;11.40;;;3.30;;
56005;SDS011;41888;44.696;10.522;2023-03-31T08:56:44;8.43;;;2.88;;
56005;SDS011;41888;44.696;10.522;2023-03-31T08:59:20;6.80;;;2.67;;
56005;SDS011;41888;44.696;10.522;2023-03-31T09:09:54;13.02;;;4.68;;
56005;SDS011;41888;44.696;10.522;2023-03-31T09:15:27;8.32;;;3.30;;
56005;SDS011;41888;44.696;10.522;2023-03-31T09:18:01;9.70;;;3.47;;
56005;SDS011;41888;44.696;10.522;2023-03-31T09:20:38;12.98;;;4.90;;
56005;SDS011;41888;44.696;10.522;2023-03-31T09:23:23;13.90;;;5.40;;
56005;SDS011;41888;44.696;10.522;2023-03-31T09:25:57;10.43;;;5.10;;
56005;SDS011;41888;44.696;10.522;2023-03-31T09:28:30;16.80;;;5.15;;
56005;SDS011;41888;44.696;10.522;2023-03-31T09:31:21;13.10;;;5.38;;
56005;SDS011;41888;44.696;10.522;2023-03-31T09:33:47;14.00;;;5.30;;
56005;SDS011;41888;44.696;10.522;2023-03-31T09:36:19;12.05;;;6.07;;
56005;SDS011;41888;44.696;10.522;2023-03-31T09:38:48;11.73;;;5.55;;
56005;SDS011;41888;44.696;10.522;2023-03-31T09:41:15;14.75;;;5.60;;
56005;SDS011;41888;44.696;10.522;2023-03-31T09:43:43;14.98;;;6.40;;
56005;SDS011;41888;44.696;10.522;2023-03-31T09:46:17;13.77;;;6.30;;
56005;SDS011;41888;44.696;10.522;2023-03-31T09:49:02;12.30;;;5.72;;
56005;SDS011;41888;44.696;10.522;2023-03-31T09:51:40;7.97;;;5.45;;
56005;SDS011;41888;44.696;10.522;2023-03-31T09:54:23;12.43;;;5.70;;
56005;SDS011;41888;44.696;10.522;2023-03-31T09:57:15;13.57;;;6.45;;
56005;SDS011;41888;44.696;10.522;2023-03-31T09:59:50;11.95;;;6.40;;
56005;SDS011;41888;44.696;10.522;2023-03-31T10:05:00;17.45;;;6.28;;
56005;SDS011;41888;44.696;10.522;2023-03-31T10:07:28;22.45;;;7.10;;
56005;SDS011;41888;44.696;10.522;2023-03-31T10:09:54;13.48;;;7.25;;
56005;SDS011;41888;44.696;10.522;2023-03-31T10:12:22;12.98;;;6.97;;
56005;SDS011;41888;44.696;10.522;2023-03-31T10:14:52;14.20;;;5.85;;
56005;SDS011;41888;44.696;10.522;2023-03-31T10:17:26;12.65;;;5.20;;
56005;SDS011;41888;44.696;10.522;2023-03-31T10:19:53;8.00;;;4.80;;
56005;SDS011;41888;44.696;10.522;2023-03-31T10:24:53;10.77;;;4.47;;
56005;SDS011;41888;44.696;10.522;2023-03-31T10:27:31;7.78;;;3.35;;
56005;SDS011;41888;44.696;10.522;2023-03-31T10:29:58;7.63;;;3.35;;
56005;SDS011;41888;44.696;10.522;2023-03-31T10:34:57;8.93;;;4.47;;
56005;SDS011;41888;44.696;10.522;2023-03-31T10:37:30;10.20;;;4.30;;
56005;SDS011;41888;44.696;10.522;2023-03-31T10:40:00;8.55;;;3.70;;
56005;SDS011;41888;44.696;10.522;2023-03-31T10:42:33;14.75;;;4.03;;
56005;SDS011;41888;44.696;10.522;2023-03-31T10:48:08;12.15;;;4.78;;
56005;SDS011;41888;44.696;10.522;2023-03-31T10:50:53;9.23;;;4.78;;
56005;SDS011;41888;44.696;10.522;2023-03-31T10:53:23;16.13;;;6.38;;
56005;SDS011;41888;44.696;10.522;2023-03-31T10:58:50;9.05;;;4.32;;
56005;SDS011;41888;44.696;10.522;2023-03-31T11:12:42;9.10;;;5.25;;
56005;SDS011;41888;44.696;10.522;2023-03-31T11:26:40;9.50;;;5.70;;
56005;SDS011;41888;44.696;10.522;2023-03-31T11:29:15;13.52;;;5.85;;
56005;SDS011;41888;44.696;10.522;2023-03-31T11:37:24;11.18;;;4.82;;
56005;SDS011;41888;44.696;10.522;2023-03-31T11:42:43;13.02;;;7.03;;
56005;SDS011;41888;44.696;10.522;2023-03-31T11:45:24;11.38;;;5.35;;
56005;SDS011;41888;44.696;10.522;2023-03-31T11:48:04;12.25;;;5.15;;
56005;SDS011;41888;44.696;10.522;2023-03-31T11:50:39;16.38;;;5.63;;
56005;SDS011;41888;44.696;10.522;2023-03-31T11:53:14;9.52;;;5.80;;
56005;SDS011;41888;44.696;10.522;2023-03-31T11:55:45;11.05;;;6.13;;
56005;SDS011;41888;44.696;10.522;2023-03-31T11:58:16;16.85;;;6.68;;
56005;SDS011;41888;44.696;10.522;2023-03-31T12:00:50;10.98;;;5.45;;
56005;SDS011;41888;44.696;10.522;2023-03-31T12:05:57;9.93;;;5.43;;
56005;SDS011;41888;44.696;10.522;2023-03-31T12:08:38;10.60;;;4.63;;
56005;SDS011;41888;44.696;10.522;2023-03-31T12:11:14;13.60;;;5.50;;
56005;SDS011;41888;44.696;10.522;2023-03-31T12:16:44;13.93;;;5.45;;
56005;SDS011;41888;44.696;10.522;2023-03-31T12:19:59;8.30;;;4.93;;
56005;SDS011;41888;44.696;10.522;2023-03-31T12:25:02;10.82;;;4.70;;
56005;SDS011;41888;44.696;10.522;2023-03-31T12:30:19;11.88;;;5.38;;
56005;SDS011;41888;44.696;10.522;2023-03-31T12:32:48;16.15;;;5.68;;
56005;SDS011;41888;44.696;10.522;2023-03-31T12:35:22;8.32;;;4.78;;
56005;SDS011;41888;44.696;10.522;2023-03-31T12:41:00;13.77;;;6.40;;
56005;SDS011;41888;44.696;10.522;2023-03-31T12:43:51;11.80;;;5.97;;
56005;SDS011;41888;44.696;10.522;2023-03-31T12:49:11;15.30;;;6.07;;
56005;SDS011;41888;44.696;10.522;2023-03-31T12:57:35;12.15;;;5.47;;
56005;SDS011;41888;44.696;10.522;2023-03-31T13:02:41;12.30;;;6.20;;
56005;SDS011;41888;44.696;10.522;2023-03-31T13:08:02;10.23;;;5.70;;
56005;SDS011;41888;44.696;10.522;2023-03-31T13:10:29;12.00;;;5.93;;
56005;SDS011;41888;44.696;10.522;2023-03-31T13:13:01;13.57;;;6.13;;
56005;SDS011;41888;44.696;10.522;2023-03-31T13:15:29;12.02;;;6.05;;
56005;SDS011;41888;44.696;10.522;2023-03-31T13:17:58;16.88;;;6.47;;
56005;SDS011;41888;44.696;10.522;2023-03-31T13:20:30;16.25;;;6.80;;
56005;SDS011;41888;44.696;10.522;2023-03-31T13:23:02;13.82;;;7.28;;
56005;SDS011;41888;44.696;10.522;2023-03-31T13:25:33;19.08;;;7.35;;
56005;SDS011;41888;44.696;10.522;2023-03-31T13:33:08;15.02;;;7.70;;
56005;SDS011;41888;44.696;10.522;2023-03-31T13:35:39;20.02;;;7.57;;
56005;SDS011;41888;44.696;10.522;2023-03-31T13:38:29;15.50;;;7.22;;
56005;SDS011;41888;44.696;10.522;2023-03-31T13:46:20;15.15;;;7.47;;
56005;SDS011;41888;44.696;10.522;2023-03-31T13:56:51;12.77;;;5.68;;
56005;SDS011;41888;44.696;10.522;2023-03-31T14:05:22;13.40;;;6.53;;
56005;SDS011;41888;44.696;10.522;2023-03-31T14:07:53;11.02;;;5.65;;
56005;SDS011;41888;44.696;10.522;2023-03-31T14:10:24;15.85;;;7.00;;
56005;SDS011;41888;44.696;10.522;2023-03-31T14:13:09;10.55;;;4.78;;
56005;SDS011;41888;44.696;10.522;2023-03-31T14:15:56;12.57;;;4.60;;
56005;SDS011;41888;44.696;10.522;2023-03-31T14:18:28;11.82;;;5.47;;
56005;SDS011;41888;44.696;10.522;2023-03-31T14:21:19;14.75;;;5.85;;
56005;SDS011;41888;44.696;10.522;2023-03-31T14:34:38;14.68;;;6.03;;
56005;SDS011;41888;44.696;10.522;2023-03-31T14:37:12;14.02;;;6.03;;
56005;SDS011;41888;44.696;10.522;2023-03-31T14:42:21;11.27;;;4.80;;
56005;SDS011;41888;44.696;10.522;2023-03-31T14:44:54;13.95;;;6.03;;
56005;SDS011;41888;44.696;10.522;2023-03-31T14:47:26;11.07;;;6.45;;
56005;SDS011;41888;44.696;10.522;2023-03-31T14:52:30;14.73;;;5.63;;
56005;SDS011;41888;44.696;10.522;2023-03-31T14:54:59;9.48;;;5.03;;
56005;SDS011;41888;44.696;10.522;2023-03-31T14:57:32;16.00;;;4.90;;
56005;SDS011;41888;44.696;10.522;2023-03-31T15:00:04;13.00;;;5.50;;
56005;SDS011;41888;44.696;10.522;2023-03-31T15:02:34;12.52;;;7.05;;
56005;SDS011;41888;44.696;10.522;2023-03-31T15:05:08;10.63;;;4.47;;
56005;SDS011;41888;44.696;10.522;2023-03-31T15:07:45;8.30;;;3.60;;
56005;SDS011;41888;44.696;10.522;2023-03-31T15:10:15;9.38;;;4.30;;
56005;SDS011;41888;44.696;10.522;2023-03-31T15:12:45;10.80;;;4.70;;
56005;SDS011;41888;44.696;10.522;2023-03-31T15:15:13;7.72;;;4.05;;
56005;SDS011;41888;44.696;10.522;2023-03-31T15:17:41;11.23;;;4.40;;
56005;SDS011;41888;44.696;10.522;2023-03-31T15:20:20;10.32;;;5.00;;
56005;SDS011;41888;44.696;10.522;2023-03-31T15:22:48;6.50;;;4.15;;
56005;SDS011;41888;44.696;10.522;2023-03-31T15:25:15;11.05;;;4.45;;
56005;SDS011;41888;44.696;10.522;2023-03-31T15:27:46;9.30;;;4.55;;
56005;SDS011;41888;44.696;10.522;2023-03-31T15:30:18;12.90;;;5.95;;
56005;SDS011;41888;44.696;10.522;2023-03-31T15:32:48;11.00;;;4.80;;
56005;SDS011;41888;44.696;10.522;2023-03-31T15:35:30;10.18;;;4.82;;
56005;SDS011;41888;44.696;10.522;2023-03-31T15:38:01;15.93;;;5.97;;
56005;SDS011;41888;44.696;10.522;2023-03-31T15:43:05;12.07;;;5.30;;
56005;SDS011;41888;44.696;10.522;2023-03-31T15:45:51;9.05;;;4.82;;
56005;SDS011;41888;44.696;10.522;2023-03-31T15:51:39;11.82;;;5.55;;
56005;SDS011;41888;44.696;10.522;2023-03-31T15:53:44;20.05;;;7.57;;
56005;SDS011;41888;44.696;10.522;2023-03-31T15:56:23;14.75;;;6.15;;
56005;SDS011;41888;44.696;10.522;2023-03-31T15:58:54;17.17;;;6.28;;
56005;SDS011;41888;44.696;10.522;2023-03-31T16:01:22;12.45;;;6.40;;
56005;SDS011;41888;44.696;10.522;2023-03-31T16:03:54;13.95;;;6.00;;
56005;SDS011;41888;44.696;10.522;2023-03-31T16:08:56;16.92;;;7.70;;
56005;SDS011;41888;44.696;10.522;2023-03-31T16:11:32;16.90;;;6.70;;
56005;SDS011;41888;44.696;10.522;2023-03-31T16:14:16;12.38;;;6.05;;
56005;SDS011;41888;44.696;10.522;2023-03-31T16:16:49;14.95;;;7.15;;
56005;SDS011;41888;44.696;10.522;2023-03-31T16:19:19;14.07;;;6.65;;
56005;SDS011;41888;44.696;10.522;2023-03-31T16:21:49;11.80;;;6.32;;
56005;SDS011;41888;44.696;10.522;2023-03-31T16:24:19;14.20;;;6.32;;
56005;SDS011;41888;44.696;10.522;2023-03-31T16:26:56;12.68;;;5.95;;
56005;SDS011;41888;44.696;10.522;2023-03-31T16:29:31;16.55;;;5.80;;
56005;SDS011;41888;44.696;10.522;2023-03-31T16:32:06;14.85;;;6.00;;
56005;SDS011;41888;44.696;10.522;2023-03-31T16:34:32;11.40;;;5.40;;
56005;SDS011;41888;44.696;10.522;2023-03-31T16:36:59;10.30;;;5.47;;
56005;SDS011;41888;44.696;10.522;2023-03-31T16:39:33;13.50;;;6.57;;
56005;SDS011;41888;44.696;10.522;2023-03-31T16:41:59;12.38;;;5.78;;
56005;SDS011;41888;44.696;10.522;2023-03-31T16:44:25;11.90;;;5.60;;
56005;SDS011;41888;44.696;10.522;2023-03-31T16:46:51;10.75;;;5.63;;
56005;SDS011;41888;44.696;10.522;2023-03-31T16:49:18;19.85;;;9.10;;
56005;SDS011;41888;44.696;10.522;2023-03-31T16:51:44;14.75;;;8.75;;
56005;SDS011;41888;44.696;10.522;2023-03-31T16:54:10;15.98;;;7.60;;
56005;SDS011;41888;44.696;10.522;2023-03-31T16:56:37;16.92;;;7.32;;
56005;SDS011;41888;44.696;10.522;2023-03-31T16:59:03;12.65;;;7.03;;
56005;SDS011;41888;44.696;10.522;2023-03-31T17:01:32;16.30;;;7.75;;
56005;SDS011;41888;44.696;10.522;2023-03-31T17:03:58;15.70;;;8.80;;
56005;SDS011;41888;44.696;10.522;2023-03-31T17:06:24;13.07;;;6.53;;
56005;SDS011;41888;44.696;10.522;2023-03-31T17:08:55;15.25;;;6.35;;
56005;SDS011;41888;44.696;10.522;2023-03-31T17:11:33;11.05;;;6.70;;
56005;SDS011;41888;44.696;10.522;2023-03-31T17:13:59;14.88;;;6.35;;
56005;SDS011;41888;44.696;10.522;2023-03-31T17:16:26;13.07;;;5.25;;
56005;SDS011;41888;44.696;10.522;2023-03-31T17:18:52;12.73;;;6.68;;
56005;SDS011;41888;44.696;10.522;2023-03-31T17:21:19;11.00;;;6.10;;
56005;SDS011;41888;44.696;10.522;2023-03-31T17:23:46;10.48;;;6.80;;
56005;SDS011;41888;44.696;10.522;2023-03-31T17:26:13;13.63;;;6.80;;
56005;SDS011;41888;44.696;10.522;2023-03-31T17:28:40;21.20;;;7.05;;
56005;SDS011;41888;44.696;10.522;2023-03-31T17:31:10;12.48;;;5.88;;
56005;SDS011;41888;44.696;10.522;2023-03-31T17:33:41;16.13;;;6.90;;
56005;SDS011;41888;44.696;10.522;2023-03-31T17:36:07;9.70;;;5.82;;
56005;SDS011;41888;44.696;10.522;2023-03-31T17:38:35;19.58;;;7.75;;
56005;SDS011;41888;44.696;10.522;2023-03-31T17:41:04;15.07;;;7.15;;
56005;SDS011;41888;44.696;10.522;2023-03-31T17:43:31;12.95;;;6.30;;
56005;SDS011;41888;44.696;10.522;2023-03-31T17:46:00;15.05;;;6.40;;
56005;SDS011;41888;44.696;10.522;2023-03-31T17:48:31;14.80;;;6.60;;
56005;SDS011;41888;44.696;10.522;2023-03-31T17:51:05;15.70;;;7.70;;
56005;SDS011;41888;44.696;10.522;2023-03-31T17:53:37;12.23;;;6.63;;
56005;SDS011;41888;44.696;10.522;2023-03-31T17:56:04;20.70;;;7.60;;